Terminal Aerodrome Forecast
Issued by NWS

Home | Current Version | Previous Version | Text Only | Print | Product List | Glossary On
Versions: 1 2 3 4 5 6 7 8 9 10 11 12 13 14 15 16 17 18 19 20
000
FTUS41 KBTV 220212 AAA
TAFRUT
TAF AMD
KRUT 220212Z 2202/2224 00000KT P6SM VCSH OVC015
     FM220600 09004KT P6SM VCSH OVC012
     FM220900 09007KT P6SM VCSH OVC010
     FM221400 02008KT P6SM VCSH BKN010 OVC030
     FM221900 01010KT 5SM -RA BR OVC010=

USA.gov is the U.S. government's official web portal to all federal, state and local government web resources and services.